Airfield :
LOGIN :

Register | Disclaimer

   EN    FR    IT 

 










Legend :    VFR   Marginal VFR   IFR   Intensive IFR   Very Intensive IFR
Visi :
Ceiling :
>= 8 km
>= 3000ft
5 to 8 km
1000 to 3000 ft
1500m to 5 km
500 to 1000 ft
800 to 1500m
200 to 500 ft
< 800m
< 200 ft
Symbols :   Thunderstorms  Fog  Heavy snow  Heavy precipitations  Wind > 20 kt
SIGMETs :     Misc.  Thunderstorms  Icing  Turbulence  Mountain Waves  Volcanic Ashes







- Airport Elevation : 2356 ft


LZTT - Poprad Tatry

CURRENT METAR :
  • 181300Z 15007KT 110V200 9999 FEW046 23/11 Q1023 NOSIG

EXPIRED METARs :
  • 181230Z 14007KT 110V180 9999 FEW046 23/11 Q1023 NOSIG
  • 181200Z 14009KT 9999 FEW046 22/12 Q1023 NOSIG
  • 181130Z 14006KT 110V200 9999 FEW050 23/12 Q1023 NOSIG
  • 181100Z VRB04KT 9999 FEW053 22/12 Q1023 NOSIG
  • 181030Z VRB02KT 9999 FEW036 22/12 Q1024 NOSIG

TAF TAF LZTT
Valid from the 18 at 12:00 until the 19 at 12:00 UTC


181100Z 1812/1912 12004KT CAVOK
BECMG 1812/1814 23008KT
BECMG 1818/1820 VRB02KT
PROB40
TEMPO 1902/1907 2500 BCFG SCT002
BECMG 1908/1910 25006KT
No reported NOTAMs for that airfield.



MET'MAP, your aeronautical weather chart ! - Copyright ORBIFLY December 2007 - Disclaimer

ORBIFLY MET'MAP TEAM :

Programming & Development : Alexandra Zaïnal
Concept & Development : Baudouin d'Aumeries
Co-Development & Prog : Marc-Olivier Méhu
Technical & hardware support : Manuel Goepfert

Contact : metmap@orbifly.com




SOURCES & CREDITS :

   NOAA